createdAt,value
2022-08-11T00:02:37.144Z,16.99
2022-08-11T00:07:36.529Z,17.13
2022-08-11T00:12:37.765Z,16.95
2022-08-11T00:17:39.004Z,16.80
2022-08-11T00:22:40.452Z,16.70
2022-08-11T00:27:40.716Z,16.74
2022-08-11T00:32:40.005Z,16.58
2022-08-11T00:37:41.191Z,16.55
2022-08-11T00:42:42.334Z,16.81
2022-08-11T00:47:43.401Z,16.67
2022-08-11T00:52:44.507Z,16.83
2022-08-11T00:57:45.661Z,16.71
2022-08-11T01:02:46.815Z,16.50
2022-08-11T01:08:01.662Z,16.59
2022-08-11T01:12:49.190Z,16.52
2022-08-11T01:17:48.663Z,16.34
2022-08-11T01:22:48.146Z,16.18
2022-08-11T01:27:47.647Z,16.16
2022-08-11T01:32:47.102Z,16.01
2022-08-11T01:37:46.673Z,16.04
2022-08-11T01:42:47.076Z,16.09
2022-08-11T01:47:53.026Z,16.14
2022-08-11T01:52:46.871Z,15.94
2022-08-11T01:57:48.439Z,15.93
2022-08-11T02:02:46.050Z,16.06
2022-08-11T02:07:45.558Z,15.94
2022-08-11T02:12:52.212Z,15.84
2022-08-11T02:17:45.399Z,15.74
2022-08-11T02:22:44.874Z,15.79
2022-08-11T02:27:44.330Z,15.76
2022-08-11T02:32:43.844Z,15.67
2022-08-11T02:37:44.314Z,15.70
2022-08-11T02:42:44.275Z,15.75
2022-08-11T02:47:43.785Z,15.96
2022-08-11T02:52:45.275Z,15.75
2022-08-11T02:57:44.760Z,15.60
2022-08-11T03:02:45.075Z,15.48
2022-08-11T03:07:44.187Z,15.66
2022-08-11T03:12:48.022Z,15.46
2022-08-11T03:17:45.305Z,15.31
2022-08-11T03:22:46.539Z,15.30
2022-08-11T03:27:47.669Z,15.49
2022-08-11T03:32:48.781Z,15.28
2022-08-11T03:37:49.961Z,15.38
2022-08-11T03:42:51.147Z,15.31
2022-08-11T03:47:53.447Z,15.27
2022-08-11T03:52:50.656Z,15.27
2022-08-11T03:57:50.833Z,15.38
2022-08-11T04:02:52.017Z,15.17
2022-08-11T04:07:53.176Z,15.30
2022-08-11T04:12:55.440Z,15.21
2022-08-11T04:17:56.873Z,15.13
2022-08-11T04:22:54.055Z,15.01
2022-08-11T04:27:55.212Z,15.27
2022-08-11T04:32:54.840Z,15.19
2022-08-11T04:37:55.985Z,15.30
2022-08-11T04:42:57.168Z,15.35
2022-08-11T04:48:03.505Z,15.36
2022-08-11T04:52:58.321Z,15.42
2022-08-11T04:57:59.498Z,15.66
2022-08-11T05:03:00.679Z,15.72
2022-08-11T05:08:01.832Z,15.86
2022-08-11T05:13:03.106Z,16.04
2022-08-11T05:18:04.272Z,16.11
2022-08-11T05:23:05.472Z,16.33
2022-08-11T05:28:06.727Z,16.65
2022-08-11T05:33:07.983Z,16.88
2022-08-11T05:38:09.170Z,17.10
2022-08-11T05:43:11.301Z,17.46
2022-08-11T05:48:10.458Z,17.78
2022-08-11T05:53:11.899Z,18.22
2022-08-11T05:58:12.294Z,18.54
2022-08-11T06:03:12.444Z,18.46
2022-08-11T06:08:11.582Z,18.80
2022-08-11T06:13:15.701Z,18.92
2022-08-11T06:18:12.887Z,19.08
2022-08-11T06:23:13.990Z,19.21
2022-08-11T06:28:20.362Z,19.47
2022-08-11T06:33:15.113Z,19.55
2022-08-11T06:38:17.247Z,19.51
2022-08-11T06:43:17.483Z,19.47
2022-08-11T06:48:17.657Z,19.75
2022-08-11T06:53:16.838Z,19.65
2022-08-11T06:58:17.951Z,20.06
2022-08-11T07:03:19.085Z,20.31
2022-08-11T07:08:34.273Z,20.35
2022-08-11T07:13:44.226Z,20.54
2022-08-11T07:18:20.148Z,20.72
2022-08-11T07:23:21.277Z,20.81
2022-08-11T07:28:22.411Z,21.09
2022-08-11T07:34:06.409Z,20.98
2022-08-11T07:38:25.492Z,20.90
2022-08-11T07:43:24.783Z,21.42
2022-08-11T07:48:25.894Z,21.06
2022-08-11T07:53:27.033Z,21.02
2022-08-11T07:58:28.130Z,21.44
2022-08-11T08:03:29.758Z,21.85
2022-08-11T08:08:28.894Z,21.98
2022-08-11T08:13:30.061Z,21.81
2022-08-11T08:18:31.193Z,21.75
2022-08-11T08:23:32.287Z,21.78
2022-08-11T08:28:33.462Z,22.01
2022-08-11T08:33:34.565Z,22.17
2022-08-11T08:38:34.694Z,22.27
2022-08-11T08:43:48.543Z,22.25
2022-08-11T08:48:36.861Z,22.54
2022-08-11T08:53:37.066Z,22.67
2022-08-11T08:58:36.191Z,22.80
2022-08-11T09:04:02.862Z,22.53
2022-08-11T09:08:39.260Z,23.05
2022-08-11T09:13:38.446Z,23.20
2022-08-11T09:18:40.604Z,23.29
2022-08-11T09:24:08.831Z,24.05
2022-08-11T09:28:39.859Z,23.65
2022-08-11T09:33:41.265Z,23.45
2022-08-11T09:38:47.369Z,23.70
2022-08-11T09:43:43.072Z,23.77
2022-08-11T09:48:44.204Z,24.08
2022-08-11T09:53:47.061Z,23.52
2022-08-11T09:58:46.282Z,23.68
2022-08-11T10:03:47.371Z,23.53
2022-08-11T10:08:48.517Z,23.80
2022-08-11T10:14:31.122Z,24.17
2022-08-11T10:18:50.609Z,23.98
2022-08-11T10:24:01.096Z,24.52
2022-08-11T10:29:10.014Z,24.54
2022-08-11T10:33:59.126Z,24.82
2022-08-11T10:38:49.627Z,24.92
2022-08-11T10:44:02.375Z,25.01
2022-08-11T10:48:50.782Z,25.05
2022-08-11T10:53:52.902Z,25.34
2022-08-11T10:58:52.011Z,25.34
2022-08-11T11:03:53.129Z,25.30
2022-08-11T11:08:57.706Z,25.49
2022-08-11T11:13:57.273Z,25.53
2022-08-11T11:19:00.956Z,26.02
2022-08-11T11:23:56.516Z,25.89
2022-08-11T11:28:57.651Z,25.87
2022-08-11T11:34:12.000Z,25.94
2022-08-11T11:39:00.696Z,26.39
2022-08-11T11:44:01.456Z,26.32
2022-08-11T11:49:01.724Z,26.35
2022-08-11T11:54:01.530Z,25.80
2022-08-11T11:59:04.665Z,26.50
2022-08-11T12:04:04.792Z,26.69
2022-08-11T12:09:03.929Z,26.86
2022-08-11T12:14:10.433Z,27.10
2022-08-11T12:19:07.055Z,27.13
2022-08-11T12:24:07.182Z,27.01
2022-08-11T12:29:07.281Z,27.51
2022-08-11T12:34:07.418Z,27.33
2022-08-11T12:39:23.020Z,27.06
2022-08-11T12:44:08.543Z,27.74
2022-08-11T12:49:07.658Z,27.88
2022-08-11T12:54:08.865Z,27.76
2022-08-11T12:59:09.959Z,27.67
2022-08-11T13:04:11.076Z,28.10
2022-08-11T13:09:12.240Z,27.89
2022-08-11T13:14:18.335Z,27.85
2022-08-11T13:19:13.485Z,27.88
2022-08-11T13:24:14.585Z,28.44
2022-08-11T13:29:15.704Z,28.25
2022-08-11T13:34:16.883Z,27.92
2022-08-11T13:39:18.028Z,28.25
2022-08-11T13:44:26.020Z,28.48
2022-08-11T13:49:20.369Z,28.16
2022-08-11T13:54:19.449Z,28.53
2022-08-11T13:59:23.048Z,28.23
2022-08-11T14:04:30.333Z,28.21
2022-08-11T14:09:21.991Z,28.21
2022-08-11T14:14:24.125Z,28.53
2022-08-11T14:19:23.225Z,28.60
2022-08-11T14:24:25.339Z,28.44
2022-08-11T14:29:24.455Z,28.25
2022-08-11T14:34:26.578Z,28.28
2022-08-11T14:39:25.729Z,28.62
2022-08-11T14:44:27.851Z,28.96
2022-08-11T14:49:27.972Z,28.93
2022-08-11T14:54:28.097Z,29.01
2022-08-11T14:59:27.202Z,28.63
2022-08-11T15:04:36.342Z,28.51
2022-08-11T15:09:28.068Z,28.96
2022-08-11T15:14:31.189Z,28.75
2022-08-11T15:19:40.271Z,29.37
2022-08-11T15:24:30.769Z,29.15
2022-08-11T15:29:30.265Z,29.26
2022-08-11T15:34:31.379Z,28.97
2022-08-11T15:39:32.507Z,29.16
2022-08-11T15:45:01.178Z,29.55
2022-08-11T15:50:11.154Z,29.35
2022-08-11T15:54:35.699Z,30.05
2022-08-11T15:59:43.279Z,30.12
2022-08-11T16:04:36.805Z,30.14
2022-08-11T16:09:41.352Z,29.68
2022-08-11T16:14:36.903Z,29.82
2022-08-11T16:19:36.077Z,30.09
2022-08-11T16:27:02.079Z,29.59
2022-08-11T16:29:37.194Z,29.74
2022-08-11T16:34:38.347Z,29.70
2022-08-11T16:39:39.533Z,30.21
2022-08-11T16:44:40.733Z,29.82
2022-08-11T16:49:47.130Z,28.93
2022-08-11T16:54:44.391Z,29.72
2022-08-11T16:59:40.852Z,29.31
2022-08-11T17:04:40.386Z,29.41
2022-08-11T17:09:42.589Z,29.37
2022-08-11T17:14:42.771Z,29.56
2022-08-11T17:20:38.535Z,29.70
2022-08-11T17:24:41.897Z,29.56
2022-08-11T17:29:53.540Z,28.93
2022-08-11T17:34:44.064Z,28.85
2022-08-11T17:39:45.197Z,28.73
2022-08-11T17:44:46.304Z,29.11
2022-08-11T17:49:48.447Z,29.33
2022-08-11T17:54:49.560Z,28.82
2022-08-11T17:59:49.488Z,28.84
2022-08-11T18:04:48.612Z,28.35
2022-08-11T18:09:49.719Z,28.63
2022-08-11T18:14:50.879Z,27.76
2022-08-11T18:19:52.020Z,27.19
2022-08-11T18:24:53.234Z,26.86
2022-08-11T18:29:54.879Z,26.57
2022-08-11T18:34:55.987Z,26.36
2022-08-11T18:39:56.031Z,26.18
2022-08-11T18:44:53.995Z,25.72
2022-08-11T18:50:02.001Z,25.37
2022-08-11T18:54:56.077Z,25.30
2022-08-11T18:59:55.181Z,25.00
2022-08-11T19:04:56.361Z,24.85
2022-08-11T19:09:58.537Z,24.53
2022-08-11T19:14:57.692Z,24.08
2022-08-11T19:19:58.925Z,23.94
2022-08-11T19:25:01.105Z,23.70
2022-08-11T19:30:11.930Z,23.65
2022-08-11T19:35:01.186Z,23.72
2022-08-11T19:40:01.430Z,23.71
2022-08-11T19:45:01.729Z,23.45
2022-08-11T19:50:00.820Z,23.35
2022-08-11T19:55:02.976Z,23.12
2022-08-11T20:00:03.650Z,23.02
2022-08-11T20:05:02.850Z,22.90
2022-08-11T20:10:05.873Z,22.89
2022-08-11T20:15:04.797Z,22.67
2022-08-11T20:20:04.083Z,22.34
2022-08-11T20:25:05.207Z,22.22
2022-08-11T20:30:06.369Z,22.02
2022-08-11T20:35:07.563Z,21.75
2022-08-11T20:40:09.761Z,21.53
2022-08-11T20:45:08.874Z,21.53
2022-08-11T20:50:09.965Z,21.45
2022-08-11T20:55:10.858Z,21.23
2022-08-11T21:00:10.827Z,21.26
2022-08-11T21:05:13.096Z,21.20
2022-08-11T21:10:15.855Z,21.26
2022-08-11T21:15:11.918Z,21.13
2022-08-11T21:20:18.420Z,20.99
2022-08-11T21:25:15.125Z,20.79
2022-08-11T21:30:14.266Z,20.69
2022-08-11T21:35:15.408Z,20.69
2022-08-11T21:40:17.376Z,20.50
2022-08-11T21:45:15.806Z,20.41
2022-08-11T21:50:16.984Z,20.35
2022-08-11T21:55:18.535Z,20.31
2022-08-11T22:00:18.691Z,19.98
2022-08-11T22:05:19.221Z,20.00
2022-08-11T22:10:41.008Z,19.91
2022-08-11T22:15:18.282Z,19.91
2022-08-11T22:20:19.402Z,19.94
2022-08-11T22:25:20.660Z,19.93
2022-08-11T22:30:21.780Z,19.97
2022-08-11T22:35:22.874Z,19.87
2022-08-11T22:40:23.977Z,19.76
2022-08-11T22:45:26.156Z,19.79
2022-08-11T22:50:26.243Z,19.76
2022-08-11T22:55:25.347Z,19.73
2022-08-11T23:00:30.288Z,19.69
2022-08-11T23:05:27.721Z,19.68
2022-08-11T23:10:29.859Z,19.48
2022-08-11T23:15:29.980Z,19.60
2022-08-11T23:20:33.457Z,19.53
2022-08-11T23:25:29.014Z,19.47
2022-08-11T23:30:30.408Z,19.36
2022-08-11T23:35:40.193Z,19.35
2022-08-11T23:40:31.706Z,19.29
2022-08-11T23:45:32.877Z,19.08
2022-08-11T23:50:33.965Z,19.14
2022-08-11T23:55:35.161Z,18.86
